UUDD/DME METAR and TAF weather

Enter ICAO airport designator
Station Type Date Time Source
UUDD METAR 2020/07/14 21:00 UTC NOAA

UUDD 142100Z 07005MPS 040V100 9999 BKN004 17/16 Q0999 R32L/290042 NOSIG


Station Type Date Time Source
UUDD Decoded METAR 2020/07/14 21:00 UTC NOAA

Moscow / Domodedovo, Russia (UUDD) 55-24N 037-54E
Jul 14, 2020 - 05:00 PM EDT / 2020.07.14 2100 UTC
Wind: from the ENE (070 degrees) at 11 MPH (10 KT) (direction variable):0
Visibility: greater than 7 mile(s):0
Sky conditions: mostly cloudy
Temperature: 62 F (17 C)
Dew Point: 60 F (16 C)
Relative Humidity: 93%
Pressure (altimeter): 29.50 in. Hg (0999 hPa)
ob: UUDD 142100Z 07005MPS 040V100 9999 BKN004 17/16 Q0999 R32L/290042 NOSIG
cycle: 21

Station Type Date Time Source
UUDD TAF 2020/07/14 21:21 UTC NOAA

TAF UUDD 141958Z 1421/1603 12006MPS 5000 BR OVC004 TX20/1510Z TN15/1503Z PROB40
TEMPO 1421/1503 0300 FG SCT002
BECMG 1505/1507 9999 NSW FEW007 OVC012
TEMPO 1509/1516 VRB18MPS 2100 -TSRA SQ FEW005 BKN016CB
BECMG 1517/1518 3000 -RA BR FEW002 OVC004 PROB40
TEMPO 1518/1603 0300 FG

Example: see airport list